メインページ
METAR-TAF:

METAR-TAF

空港 :

マドリード, スペイン

アドルフォ・スアレス・マドリード=バラハス空港

緯度: 40-27N, 経度: 003-33W, 海抜: 609m

現時点の気象観測

当レポートは21分前の11:30(UTC)に作成
南/南東の風 5kt
気温 29°C
湿度 25%
気圧 1020 hPa
視程10km以上
1,500メートル以下は雲なし、積乱雲なし

METAR: LEMD 241130Z 16005KT CAVOK 29/07 Q1020 NOSIG

時間: 13:51 (11:51 UTC)

予報

当レポートは51分前の11:00(UTC)に作成
予報は24日の 12時(UTC)から 25日の 18時(UTC)まで有効
変向風 5kt
視程10km以上
1,500メートル以下は雲なし、積乱雲なし
確率 40% :
24日の 12時(UTC)から 25日の 02時(UTC)まで一時的に
南東の風 8kt、最大18ktの突風を伴う
25日の 01時(UTC)から 25日の 03時(UTC)まで徐々に
北/北東の風 7kt

TAF: LEMD 241100Z 2412/2518 VRB05KT CAVOK TX33/2416Z TN16/2506Z PROB40 TEMPO 2412/2502 14008G18KT BECMG 2501/2503 03007KT

4,000以上の空港の気象観測と天気予報(METAR報とTAF報)

利用可能な観測所は地図上に黄色い丸と赤い丸で示す。

丸の上にカーソルを重ねると観測所名を参照できる。

次にクリックすると気象観測と天気予報を参照できる。

マップの切り替え:黒色「×」印の緑ボタンをクリックして拡大、「-」印の緑ボタンをクリックして縮小、緑色の三角印をクリックして隣りの地図に切り替え


METAR-TAF: